Time;durP1;ratioP1;P1;durP2;ratioP2;P2;SDS_P1;SDS_P2;PMS_P1;PMS_P2;Temp;Humidity;BMP_temperature;BMP_pressure;BME280_temperature;BME280_humidity;BME280_pressure;Samples;Min_cycle;Max_cycle;Signal;HPM_P1;HPM_P2
2024/01/15 00:00:06;;;;;;;17.77;6.57;;;;;;;;;;5051391;28;20048;-67
2024/01/15 00:02:33;;;;;;;18.98;6.60;;;;;;;;;;5051754;28;20130;-67
2024/01/15 00:04:59;;;;;;;19.42;7.40;;;;;;;;;;5049517;28;20045;-67
2024/01/15 00:07:27;;;;;;;24.80;7.97;;;;;;;;;;5049164;28;20047;-67
2024/01/15 00:09:53;;;;;;;24.08;7.65;;;;;;;;;;5047592;28;20048;-66
2024/01/15 00:12:19;;;;;;;20.55;6.90;;;;;;;;;;5051899;28;20052;-66
2024/01/15 00:14:46;;;;;;;23.90;8.07;;;;;;;;;;5050048;28;20047;-67
2024/01/15 00:17:12;;;;;;;17.45;7.95;;;;;;;;;;5042922;28;20041;-67
2024/01/15 00:19:39;;;;;;;23.90;7.32;;;;;;;;;;5050137;28;20333;-67
2024/01/15 00:22:05;;;;;;;21.38;8.55;;;;;;;;;;5051692;28;20049;-67
2024/01/15 00:24:33;;;;;;;18.92;7.57;;;;;;;;;;5043975;28;20045;-66
2024/01/15 00:27:00;;;;;;;19.33;7.18;;;;;;;;;;5049203;28;20227;-66
2024/01/15 00:29:26;;;;;;;21.63;8.27;;;;;;;;;;5049056;28;20055;-67
2024/01/15 00:31:52;;;;;;;21.35;7.47;;;;;;;;;;5049327;28;20108;-66
2024/01/15 00:34:19;;;;;;;22.13;7.60;;;;;;;;;;5049631;28;20044;-66
2024/01/15 00:36:45;;;;;;;27.70;9.63;;;;;;;;;;5046591;28;20045;-67
2024/01/15 00:39:11;;;;;;;19.52;7.07;;;;;;;;;;5049727;28;20598;-66
2024/01/15 00:41:39;;;;;;;20.55;7.85;;;;;;;;;;5045937;28;20549;-67
2024/01/15 00:44:06;;;;;;;24.45;8.18;;;;;;;;;;5049110;28;20051;-66
2024/01/15 00:46:33;;;;;;;21.48;7.75;;;;;;;;;;5043593;28;20115;-67
2024/01/15 00:48:59;;;;;;;25.02;7.18;;;;;;;;;;5039555;28;20048;-67
2024/01/15 00:51:26;;;;;;;23.33;8.55;;;;;;;;;;5035534;28;20045;-66
2024/01/15 00:53:52;;;;;;;25.88;8.63;;;;;;;;;;5043890;28;20429;-66
2024/01/15 00:56:18;;;;;;;26.10;8.88;;;;;;;;;;5047910;28;20045;-66
2024/01/15 00:58:46;;;;;;;28.05;8.75;;;;;;;;;;5048418;28;20049;-66
2024/01/15 01:01:12;;;;;;;22.08;8.27;;;;;;;;;;5050403;28;20041;-66
2024/01/15 01:03:39;;;;;;;23.83;7.43;;;;;;;;;;5051379;28;20420;-67
2024/01/15 01:06:05;;;;;;;28.80;9.38;;;;;;;;;;5049616;28;20045;-66
2024/01/15 01:08:31;;;;;;;23.33;8.98;;;;;;;;;;5043526;28;20052;-66
2024/01/15 01:10:58;;;;;;;21.00;7.03;;;;;;;;;;5051033;28;20041;-65
2024/01/15 01:13:24;;;;;;;27.52;10.15;;;;;;;;;;5046763;28;20045;-65
2024/01/15 01:15:52;;;;;;;20.33;7.38;;;;;;;;;;5049876;28;20049;-66
2024/01/15 01:18:18;;;;;;;23.67;7.15;;;;;;;;;;5045409;28;20416;-66
2024/01/15 01:20:45;;;;;;;26.90;9.00;;;;;;;;;;5046881;28;20052;-65
2024/01/15 01:23:11;;;;;;;23.85;7.97;;;;;;;;;;5039015;28;20053;-66
2024/01/15 01:25:37;;;;;;;27.77;8.57;;;;;;;;;;5042399;28;20045;-66
2024/01/15 01:28:04;;;;;;;21.65;7.78;;;;;;;;;;5045367;28;20049;-65
2024/01/15 01:30:30;;;;;;;27.88;8.38;;;;;;;;;;5050819;28;20136;-66
2024/01/15 01:32:58;;;;;;;25.98;9.80;;;;;;;;;;5037437;28;20043;-65
2024/01/15 01:35:25;;;;;;;25.98;8.25;;;;;;;;;;5043227;28;20064;-65
2024/01/15 01:37:51;;;;;;;28.55;8.38;;;;;;;;;;5043660;28;20049;-66
2024/01/15 01:40:17;;;;;;;28.33;9.15;;;;;;;;;;5049384;28;20188;-66
2024/01/15 01:42:44;;;;;;;28.73;9.13;;;;;;;;;;5045554;28;20081;-66
2024/01/15 01:45:11;;;;;;;30.33;9.38;;;;;;;;;;5050536;28;20052;-66
2024/01/15 01:47:37;;;;;;;25.35;9.20;;;;;;;;;;5047623;28;20056;-66
2024/01/15 01:50:05;;;;;;;22.75;9.18;;;;;;;;;;5035669;28;20565;-66
2024/01/15 01:52:32;;;;;;;21.58;8.32;;;;;;;;;;5049736;28;20045;-66
2024/01/15 01:54:59;;;;;;;25.25;9.05;;;;;;;;;;5045408;28;20045;-66
2024/01/15 01:57:26;;;;;;;22.48;8.18;;;;;;;;;;5049483;28;20129;-66
2024/01/15 01:59:52;;;;;;;25.42;8.98;;;;;;;;;;5050497;28;20053;-66
2024/01/15 02:02:19;;;;;;;30.63;10.73;;;;;;;;;;5045257;28;20060;-66
2024/01/15 02:04:47;;;;;;;23.33;7.68;;;;;;;;;;5054352;28;20420;-66
2024/01/15 02:07:17;;;;;;;22.20;9.02;;;;;;;;;;5047033;28;20052;-66
2024/01/15 02:09:43;;;;;;;25.02;10.48;;;;;;;;;;5046860;28;20041;-65
2024/01/15 02:12:10;;;;;;;21.92;7.60;;;;;;;;;;5040549;28;20507;-66
2024/01/15 02:14:36;;;;;;;24.88;8.90;;;;;;;;;;5052285;28;20040;-66
2024/01/15 02:17:03;;;;;;;27.83;9.93;;;;;;;;;;5053798;28;20048;-66
2024/01/15 02:19:29;;;;;;;30.40;8.20;;;;;;;;;;5051454;28;20128;-65
2024/01/15 02:21:56;;;;;;;29.17;10.52;;;;;;;;;;5054219;28;20061;-66
2024/01/15 02:24:24;;;;;;;30.60;9.30;;;;;;;;;;5053041;28;20550;-66
2024/01/15 02:26:50;;;;;;;23.92;8.50;;;;;;;;;;5041229;28;20051;-66
2024/01/15 02:29:17;;;;;;;27.63;8.80;;;;;;;;;;5051271;28;20130;-65
2024/01/15 02:31:43;;;;;;;27.33;9.38;;;;;;;;;;5053719;28;20053;-66
2024/01/15 02:34:09;;;;;;;24.40;7.80;;;;;;;;;;5054157;28;20127;-66
2024/01/15 02:36:36;;;;;;;31.77;8.63;;;;;;;;;;5051346;28;20052;-66
2024/01/15 02:39:02;;;;;;;24.13;8.90;;;;;;;;;;5052910;28;20057;-66
2024/01/15 02:41:30;;;;;;;21.42;8.75;;;;;;;;;;5047799;28;20056;-66
2024/01/15 02:43:56;;;;;;;25.45;8.70;;;;;;;;;;5046018;28;20522;-66
2024/01/15 02:46:23;;;;;;;27.27;8.95;;;;;;;;;;5052222;28;20059;-66
2024/01/15 02:48:49;;;;;;;24.08;8.73;;;;;;;;;;5043274;28;20049;-66
2024/01/15 02:51:15;;;;;;;24.77;8.38;;;;;;;;;;5043962;28;20049;-66
2024/01/15 02:53:42;;;;;;;25.38;8.85;;;;;;;;;;5047343;28;20053;-66
2024/01/15 02:56:08;;;;;;;27.35;7.95;;;;;;;;;;5049767;28;20049;-66
2024/01/15 02:58:36;;;;;;;23.58;7.75;;;;;;;;;;5052213;28;20049;-66
2024/01/15 03:01:02;;;;;;;25.98;8.13;;;;;;;;;;5050612;28;20421;-66
2024/01/15 03:03:29;;;;;;;29.65;8.68;;;;;;;;;;5049652;28;20056;-66
2024/01/15 03:05:55;;;;;;;31.05;9.80;;;;;;;;;;5050481;28;20073;-65
2024/01/15 03:08:22;;;;;;;24.92;8.48;;;;;;;;;;5050234;28;20146;-66
2024/01/15 03:10:49;;;;;;;28.90;8.65;;;;;;;;;;5050914;28;20053;-66
2024/01/15 03:13:15;;;;;;;20.52;8.20;;;;;;;;;;5050082;28;20049;-66
2024/01/15 03:15:43;;;;;;;30.15;9.30;;;;;;;;;;5050522;28;20415;-66
2024/01/15 03:18:10;;;;;;;28.45;9.40;;;;;;;;;;5040661;28;20502;-66
2024/01/15 03:20:36;;;;;;;33.03;9.80;;;;;;;;;;5050053;28;20041;-66
2024/01/15 03:23:02;;;;;;;25.05;11.15;;;;;;;;;;5048597;28;20051;-66
2024/01/15 03:25:29;;;;;;;34.40;9.13;;;;;;;;;;5050790;28;20647;-66
2024/01/15 03:27:55;;;;;;;26.60;9.15;;;;;;;;;;5041854;28;20133;-66
2024/01/15 03:30:21;;;;;;;32.13;10.07;;;;;;;;;;5044584;28;20041;-66
2024/01/15 03:32:50;;;;;;;27.70;10.38;;;;;;;;;;5048186;28;20049;-66
2024/01/15 03:35:16;;;;;;;31.85;9.52;;;;;;;;;;5052083;28;20421;-67
2024/01/15 03:37:43;;;;;;;27.35;9.45;;;;;;;;;;5049795;28;20147;-66
2024/01/15 03:40:09;;;;;;;34.00;11.10;;;;;;;;;;5044151;28;20045;-66
2024/01/15 03:42:36;;;;;;;28.05;10.15;;;;;;;;;;5050039;28;20041;-66
2024/01/15 03:45:02;;;;;;;28.50;10.02;;;;;;;;;;5050836;28;20047;-66
2024/01/15 03:47:29;;;;;;;30.80;11.02;;;;;;;;;;5048697;28;20053;-67
2024/01/15 03:49:56;;;;;;;33.50;9.70;;;;;;;;;;5043457;28;20049;-66
2024/01/15 03:52:23;;;;;;;28.77;10.57;;;;;;;;;;5047552;28;20055;-66
2024/01/15 03:54:49;;;;;;;33.80;10.48;;;;;;;;;;5052027;28;20052;-66
2024/01/15 03:57:16;;;;;;;24.75;8.55;;;;;;;;;;5047944;28;20051;-66
2024/01/15 03:59:42;;;;;;;28.70;9.35;;;;;;;;;;5042559;28;20052;-66
2024/01/15 04:02:09;;;;;;;27.48;8.95;;;;;;;;;;5050299;28;20456;-66
2024/01/15 04:04:35;;;;;;;30.23;9.75;;;;;;;;;;5047407;28;20049;-65
2024/01/15 04:07:03;;;;;;;23.08;8.75;;;;;;;;;;5049026;28;20511;-66
2024/01/15 04:09:29;;;;;;;29.50;10.02;;;;;;;;;;5047868;28;20040;-67
2024/01/15 04:11:55;;;;;;;20.73;9.35;;;;;;;;;;5051401;28;20048;-66
2024/01/15 04:14:21;;;;;;;33.38;8.88;;;;;;;;;;5046247;28;20071;-67
2024/01/15 04:16:47;;;;;;;27.80;10.25;;;;;;;;;;5048890;28;20497;-66
2024/01/15 04:19:14;;;;;;;29.50;10.35;;;;;;;;;;5050447;28;20053;-66
2024/01/15 04:21:41;;;;;;;27.50;9.55;;;;;;;;;;5043881;28;20423;-66
2024/01/15 04:24:09;;;;;;;23.10;8.35;;;;;;;;;;5042830;28;20072;-66
2024/01/15 04:26:35;;;;;;;32.88;9.95;;;;;;;;;;5045537;28;20045;-66
2024/01/15 04:29:01;;;;;;;29.67;9.95;;;;;;;;;;5037904;28;20052;-66
2024/01/15 04:31:28;;;;;;;26.70;9.20;;;;;;;;;;5051368;28;20051;-65
2024/01/15 04:33:54;;;;;;;26.25;9.55;;;;;;;;;;5051417;28;20053;-66
2024/01/15 04:36:21;;;;;;;29.40;9.23;;;;;;;;;;5051201;28;20425;-65
2024/01/15 04:38:47;;;;;;;31.33;9.95;;;;;;;;;;5050387;28;20072;-65
2024/01/15 04:41:15;;;;;;;26.00;8.80;;;;;;;;;;5051120;28;20545;-67
2024/01/15 04:43:41;;;;;;;26.25;8.68;;;;;;;;;;5045787;28;20048;-66
2024/01/15 04:46:07;;;;;;;23.15;9.15;;;;;;;;;;5049769;28;20048;-66
2024/01/15 04:48:34;;;;;;;26.92;8.73;;;;;;;;;;5049628;28;20049;-66
2024/01/15 04:51:00;;;;;;;36.72;11.68;;;;;;;;;;5050280;28;20045;-66
2024/01/15 04:53:27;;;;;;;28.20;9.68;;;;;;;;;;5049685;28;20060;-66
2024/01/15 04:55:53;;;;;;;29.27;9.30;;;;;;;;;;5044726;28;20044;-66
2024/01/15 04:58:24;;;;;;;27.70;8.88;;;;;;;;;;5050485;28;20099;-66
2024/01/15 05:00:51;;;;;;;27.85;8.57;;;;;;;;;;5050777;28;20417;-66
2024/01/15 05:03:17;;;;;;;33.25;10.25;;;;;;;;;;5042652;28;20055;-65
2024/01/15 05:05:44;;;;;;;31.58;9.95;;;;;;;;;;5050446;28;20070;-66
2024/01/15 05:08:10;;;;;;;28.65;9.75;;;;;;;;;;5045842;28;20045;-66
2024/01/15 05:10:36;;;;;;;25.25;8.10;;;;;;;;;;5049746;28;20045;-66
2024/01/15 05:13:03;;;;;;;31.42;9.75;;;;;;;;;;5042563;28;20059;-66
2024/01/15 05:15:30;;;;;;;31.02;10.82;;;;;;;;;;5050056;28;20059;-66
2024/01/15 05:17:57;;;;;;;22.75;8.93;;;;;;;;;;5049633;28;20326;-66
2024/01/15 05:20:23;;;;;;;24.85;10.00;;;;;;;;;;5045999;28;20128;-66
2024/01/15 05:22:50;;;;;;;30.50;9.82;;;;;;;;;;5050490;28;20523;-66
2024/01/15 05:25:16;;;;;;;32.92;11.38;;;;;;;;;;5050250;28;20052;-66
2024/01/15 05:27:42;;;;;;;28.77;11.07;;;;;;;;;;5039113;28;20045;-67
2024/01/15 05:30:09;;;;;;;31.02;9.82;;;;;;;;;;5050299;28;20045;-67
2024/01/15 05:32:37;;;;;;;29.67;10.32;;;;;;;;;;5050449;28;20573;-66
2024/01/15 05:35:03;;;;;;;30.75;10.35;;;;;;;;;;5047374;28;20045;-67
2024/01/15 05:37:30;;;;;;;33.03;10.13;;;;;;;;;;5048825;28;20055;-66
2024/01/15 05:39:57;;;;;;;31.13;9.45;;;;;;;;;;5049933;28;20136;-66
2024/01/15 05:42:23;;;;;;;29.85;10.32;;;;;;;;;;5047175;28;20416;-66
2024/01/15 05:44:49;;;;;;;33.33;10.63;;;;;;;;;;5049737;28;20049;-66
2024/01/15 05:47:16;;;;;;;29.95;10.20;;;;;;;;;;5044694;28;20049;-66
2024/01/15 05:49:43;;;;;;;26.73;9.38;;;;;;;;;;5040347;28;20047;-66
2024/01/15 05:52:10;;;;;;;28.30;9.57;;;;;;;;;;5045514;28;20051;-66
2024/01/15 05:54:37;;;;;;;24.23;8.90;;;;;;;;;;5050033;28;20048;-67
2024/01/15 05:57:03;;;;;;;28.52;9.23;;;;;;;;;;5048504;28;20423;-66
2024/01/15 05:59:32;;;;;;;25.75;9.35;;;;;;;;;;5049297;28;20128;-66
2024/01/15 06:01:58;;;;;;;31.20;10.20;;;;;;;;;;5049183;28;20053;-67
2024/01/15 06:04:24;;;;;;;27.77;9.80;;;;;;;;;;5047990;28;20045;-66
2024/01/15 06:06:52;;;;;;;32.83;10.98;;;;;;;;;;5042622;28;20062;-67
2024/01/15 06:09:18;;;;;;;29.38;9.18;;;;;;;;;;5048187;28;20057;-66
2024/01/15 06:11:45;;;;;;;26.67;9.65;;;;;;;;;;5044932;28;20080;-66
2024/01/15 06:14:11;;;;;;;28.15;9.20;;;;;;;;;;5048181;28;20049;-67
2024/01/15 06:16:38;;;;;;;23.98;8.57;;;;;;;;;;5040358;28;20048;-66
2024/01/15 06:19:04;;;;;;;29.48;9.60;;;;;;;;;;5046967;28;20457;-66
2024/01/15 06:21:30;;;;;;;23.77;9.65;;;;;;;;;;5049561;28;20041;-68
2024/01/15 06:23:58;;;;;;;23.27;9.02;;;;;;;;;;5041929;28;20485;-66
2024/01/15 06:26:25;;;;;;;27.88;9.82;;;;;;;;;;5047091;28;20051;-66
2024/01/15 06:28:51;;;;;;;26.90;9.55;;;;;;;;;;5044233;28;20051;-67
2024/01/15 06:31:17;;;;;;;28.08;9.50;;;;;;;;;;5047777;28;20059;-66
2024/01/15 06:33:45;;;;;;;27.33;9.88;;;;;;;;;;5042720;28;20055;-66
2024/01/15 06:36:11;;;;;;;24.85;9.43;;;;;;;;;;5047129;28;20481;-66
2024/01/15 06:38:38;;;;;;;28.48;9.88;;;;;;;;;;5043284;28;20050;-67
2024/01/15 06:41:06;;;;;;;28.77;9.90;;;;;;;;;;5042353;28;20449;-67
2024/01/15 06:43:32;;;;;;;23.15;8.57;;;;;;;;;;5044277;28;20048;-67
2024/01/15 06:45:58;;;;;;;21.08;8.98;;;;;;;;;;5039302;28;20041;-67
2024/01/15 06:48:25;;;;;;;24.15;9.70;;;;;;;;;;5051317;28;20052;-67
2024/01/15 06:50:51;;;;;;;26.98;9.63;;;;;;;;;;5053348;28;20131;-66
2024/01/15 06:53:17;;;;;;;27.63;9.68;;;;;;;;;;5052025;28;20052;-67
2024/01/15 06:55:44;;;;;;;29.00;10.07;;;;;;;;;;5052284;28;20051;-66
2024/01/15 06:58:12;;;;;;;23.85;9.10;;;;;;;;;;5051225;28;20044;-66
2024/01/15 07:00:38;;;;;;;28.42;9.75;;;;;;;;;;5044883;28;20056;-66
2024/01/15 07:03:05;;;;;;;27.77;9.43;;;;;;;;;;5052565;28;20049;-66
2024/01/15 07:05:32;;;;;;;26.67;9.73;;;;;;;;;;5051852;28;20041;-67
2024/01/15 07:07:58;;;;;;;24.90;9.23;;;;;;;;;;5043681;28;20049;-66
2024/01/15 07:10:24;;;;;;;29.13;9.43;;;;;;;;;;5053008;28;20132;-67
2024/01/15 07:12:51;;;;;;;26.70;10.38;;;;;;;;;;5052428;28;20044;-66
2024/01/15 07:15:18;;;;;;;27.73;10.20;;;;;;;;;;5050395;28;20048;-66
2024/01/15 07:17:45;;;;;;;22.73;8.75;;;;;;;;;;5051444;28;20055;-66
2024/01/15 07:20:12;;;;;;;33.15;9.65;;;;;;;;;;5051995;28;20051;-66
2024/01/15 07:22:38;;;;;;;28.30;8.93;;;;;;;;;;5052823;28;20059;-67
2024/01/15 07:25:06;;;;;;;31.67;12.15;;;;;;;;;;5047300;28;20049;-67
2024/01/15 07:27:33;;;;;;;25.15;9.73;;;;;;;;;;5046448;28;20041;-66
2024/01/15 07:29:59;;;;;;;29.48;9.93;;;;;;;;;;5048964;28;20048;-67
2024/01/15 07:32:27;;;;;;;26.75;9.85;;;;;;;;;;5045448;28;20048;-67
2024/01/15 07:34:53;;;;;;;28.35;10.88;;;;;;;;;;5046936;28;20052;-67
2024/01/15 07:37:20;;;;;;;27.98;10.23;;;;;;;;;;5044765;28;20044;-66
2024/01/15 07:39:46;;;;;;;28.17;9.70;;;;;;;;;;5049834;28;20064;-66
2024/01/15 07:42:13;;;;;;;24.15;9.68;;;;;;;;;;5051004;28;20041;-66
2024/01/15 07:44:39;;;;;;;27.45;10.25;;;;;;;;;;5051166;28;20053;-66
2024/01/15 07:47:06;;;;;;;22.13;8.73;;;;;;;;;;5048159;28;20051;-67
2024/01/15 07:49:34;;;;;;;25.63;9.50;;;;;;;;;;5050675;28;20052;-66
2024/01/15 07:52:01;;;;;;;22.30;9.20;;;;;;;;;;5051283;28;20136;-66
2024/01/15 07:54:27;;;;;;;24.13;9.05;;;;;;;;;;5043960;28;20045;-67
2024/01/15 07:56:54;;;;;;;25.58;9.45;;;;;;;;;;5050428;28;20049;-67
2024/01/15 07:59:20;;;;;;;28.13;9.45;;;;;;;;;;5049080;28;20053;-67
2024/01/15 08:01:47;;;;;;;25.83;8.80;;;;;;;;;;5049631;28;20393;-66
2024/01/15 08:04:13;;;;;;;26.17;9.38;;;;;;;;;;5051278;28;20052;-66
2024/01/15 08:06:41;;;;;;;26.90;9.93;;;;;;;;;;5040412;28;20049;-67
2024/01/15 08:09:08;;;;;;;29.75;9.60;;;;;;;;;;5047872;28;20428;-67
2024/01/15 08:11:34;;;;;;;32.63;10.27;;;;;;;;;;5051997;28;20580;-66
2024/01/15 08:14:01;;;;;;;30.13;9.55;;;;;;;;;;5051307;28;20068;-67
2024/01/15 08:16:28;;;;;;;30.00;10.27;;;;;;;;;;5049818;28;20132;-67
2024/01/15 08:18:54;;;;;;;25.73;9.63;;;;;;;;;;5042493;28;20489;-67
2024/01/15 08:21:21;;;;;;;25.35;9.45;;;;;;;;;;5042899;28;20045;-68
2024/01/15 08:23:48;;;;;;;24.67;8.90;;;;;;;;;;5037540;28;20049;-68
2024/01/15 08:26:15;;;;;;;24.73;9.70;;;;;;;;;;5048848;28;20049;-67
2024/01/15 08:28:41;;;;;;;27.08;9.57;;;;;;;;;;5050771;28;20045;-68
2024/01/15 08:31:08;;;;;;;26.52;9.25;;;;;;;;;;5050020;28;20049;-67
2024/01/15 08:33:34;;;;;;;26.40;8.85;;;;;;;;;;5037732;28;20414;-68
2024/01/15 08:36:02;;;;;;;25.55;10.23;;;;;;;;;;5038428;28;20041;-67
2024/01/15 08:38:28;;;;;;;25.02;9.93;;;;;;;;;;5046074;28;20060;-67
2024/01/15 08:40:58;;;;;;;23.15;9.35;;;;;;;;;;5047549;28;20051;-68
2024/01/15 08:43:25;;;;;;;25.02;9.77;;;;;;;;;;5048322;28;20144;-67
2024/01/15 08:45:50;;;;;;;26.92;9.13;;;;;;;;;;5041906;28;20071;-67
2024/01/15 08:48:17;;;;;;;27.83;10.40;;;;;;;;;;5049432;28;20045;-67
2024/01/15 08:50:45;;;;;;;25.65;9.60;;;;;;;;;;5041172;28;20132;-67
2024/01/15 08:53:12;;;;;;;29.00;9.75;;;;;;;;;;5040651;28;20049;-67
2024/01/15 08:55:39;;;;;;;28.52;9.88;;;;;;;;;;5047901;28;20546;-68
2024/01/15 08:58:07;;;;;;;32.72;9.68;;;;;;;;;;5047353;28;20045;-67
2024/01/15 09:00:33;;;;;;;24.40;9.07;;;;;;;;;;5037625;28;20416;-67
2024/01/15 09:03:00;;;;;;;27.05;9.68;;;;;;;;;;5025516;28;20048;-67
2024/01/15 09:05:26;;;;;;;26.02;9.27;;;;;;;;;;5047965;28;20055;-68
2024/01/15 09:07:52;;;;;;;26.13;10.18;;;;;;;;;;5041635;28;20051;-67
2024/01/15 09:10:20;;;;;;;28.35;11.00;;;;;;;;;;5032769;28;20136;-67
2024/01/15 09:12:46;;;;;;;35.28;11.15;;;;;;;;;;5036224;28;20051;-68
2024/01/15 09:15:14;;;;;;;26.35;8.45;;;;;;;;;;5038797;28;20045;-68
2024/01/15 09:17:40;;;;;;;27.48;9.23;;;;;;;;;;5045197;28;20132;-67
2024/01/15 09:20:08;;;;;;;26.98;9.48;;;;;;;;;;5038831;28;20078;-68
2024/01/15 09:22:34;;;;;;;28.38;9.95;;;;;;;;;;5030520;28;20052;-69
2024/01/15 09:25:01;;;;;;;28.10;9.25;;;;;;;;;;5035736;28;20501;-69
2024/01/15 09:27:27;;;;;;;27.23;9.75;;;;;;;;;;5044100;28;20049;-68
2024/01/15 09:29:54;;;;;;;29.67;10.25;;;;;;;;;;5044816;28;20139;-67
2024/01/15 09:32:21;;;;;;;28.27;10.60;;;;;;;;;;5031017;28;20544;-68
2024/01/15 09:34:48;;;;;;;30.05;11.38;;;;;;;;;;5042613;28;20044;-68
2024/01/15 09:37:15;;;;;;;24.63;9.73;;;;;;;;;;5047898;28;20049;-68
2024/01/15 09:39:41;;;;;;;25.52;8.32;;;;;;;;;;5048159;28;20049;-68
2024/01/15 09:42:08;;;;;;;27.15;9.52;;;;;;;;;;5038861;28;20422;-68
2024/01/15 09:44:35;;;;;;;21.67;7.95;;;;;;;;;;5047616;28;20051;-67
2024/01/15 09:47:02;;;;;;;22.67;9.15;;;;;;;;;;5041888;28;20136;-68
2024/01/15 09:49:30;;;;;;;21.05;8.60;;;;;;;;;;5043441;28;20048;-68
2024/01/15 09:51:57;;;;;;;23.00;9.27;;;;;;;;;;5047428;28;20045;-68
2024/01/15 09:54:24;;;;;;;23.75;8.95;;;;;;;;;;5042286;28;20163;-68
2024/01/15 09:56:51;;;;;;;20.35;8.50;;;;;;;;;;5039721;28;20515;-68
2024/01/15 09:59:18;;;;;;;21.42;8.27;;;;;;;;;;5045585;28;20042;-67
2024/01/15 10:01:45;;;;;;;18.42;8.20;;;;;;;;;;5047512;28;20429;-68
2024/01/15 10:04:12;;;;;;;19.92;8.82;;;;;;;;;;5039037;28;20081;-67
2024/01/15 10:06:40;;;;;;;20.88;8.57;;;;;;;;;;5047729;28;20053;-67
2024/01/15 10:09:07;;;;;;;24.10;8.02;;;;;;;;;;5039663;28;20127;-68
2024/01/15 10:11:34;;;;;;;21.67;8.20;;;;;;;;;;5041849;28;20517;-68
2024/01/15 10:14:00;;;;;;;19.92;7.78;;;;;;;;;;5044546;28;20045;-68
2024/01/15 10:16:27;;;;;;;17.70;7.22;;;;;;;;;;5046235;28;20041;-68
2024/01/15 10:18:53;;;;;;;19.60;8.15;;;;;;;;;;5044388;28;20055;-67
2024/01/15 10:21:19;;;;;;;17.55;7.47;;;;;;;;;;5038790;28;20424;-68
2024/01/15 10:23:47;;;;;;;16.58;7.40;;;;;;;;;;5038310;28;20072;-68
2024/01/15 10:26:14;;;;;;;19.25;7.13;;;;;;;;;;5050709;28;20056;-68
2024/01/15 10:28:42;;;;;;;18.20;7.80;;;;;;;;;;5050724;28;20055;-68
2024/01/15 10:31:09;;;;;;;18.70;7.35;;;;;;;;;;5044029;28;20056;-67
2024/01/15 10:33:36;;;;;;;18.52;6.95;;;;;;;;;;5037988;28;20352;-68
2024/01/15 10:36:02;;;;;;;17.67;7.05;;;;;;;;;;5031223;28;20041;-68
2024/01/15 10:38:29;;;;;;;17.88;7.13;;;;;;;;;;5042347;28;20075;-68
2024/01/15 10:40:57;;;;;;;17.88;6.82;;;;;;;;;;5047533;28;20048;-67
2024/01/15 10:43:24;;;;;;;19.05;7.57;;;;;;;;;;5048846;28;20045;-68
2024/01/15 10:45:51;;;;;;;17.50;6.97;;;;;;;;;;5046602;28;20305;-68
2024/01/15 10:48:18;;;;;;;16.58;7.63;;;;;;;;;;5041712;28;20072;-67
2024/01/15 10:50:46;;;;;;;17.77;7.65;;;;;;;;;;5045202;28;20057;-67
2024/01/15 10:53:12;;;;;;;15.18;6.35;;;;;;;;;;5036584;28;20041;-68
2024/01/15 10:55:39;;;;;;;17.05;6.88;;;;;;;;;;5049295;28;20137;-68
2024/01/15 10:58:08;;;;;;;19.48;8.30;;;;;;;;;;5044375;28;20050;-67
2024/01/15 11:00:35;;;;;;;14.70;6.35;;;;;;;;;;5043379;28;20054;-68
2024/01/15 11:03:05;;;;;;;17.88;7.35;;;;;;;;;;5040796;28;20528;-68
2024/01/15 11:05:33;;;;;;;25.92;12.60;;;;;;;;;;5050517;28;20040;-68
2024/01/15 11:08:00;;;;;;;16.23;7.15;;;;;;;;;;5049693;28;20053;-68
2024/01/15 11:10:40;;;;;;;16.08;7.25;;;;;;;;;;5043247;28;20081;-68
2024/01/15 11:13:08;;;;;;;21.45;9.18;;;;;;;;;;5043642;28;20049;-69
2024/01/15 11:15:55;;;;;;;24.67;11.30;;;;;;;;;;5046142;28;20045;-69
2024/01/15 11:18:22;;;;;;;16.85;7.85;;;;;;;;;;5037491;28;20055;-69
2024/01/15 11:21:03;;;;;;;16.70;6.20;;;;;;;;;;5044904;28;20423;-68
2024/01/15 11:23:42;;;;;;;16.80;8.32;;;;;;;;;;5040504;28;20068;-68
2024/01/15 11:26:27;;;;;;;36.33;15.40;;;;;;;;;;5042761;28;20063;-68
2024/01/15 11:28:55;;;;;;;18.48;6.75;;;;;;;;;;5049226;28;20555;-67
2024/01/15 11:31:26;;;;;;;17.77;9.63;;;;;;;;;;5032626;28;20052;-67
2024/01/15 11:33:53;;;;;;;12.85;7.63;;;;;;;;;;5031834;28;20077;-68
2024/01/15 11:36:19;;;;;;;14.95;6.80;;;;;;;;;;5050366;28;20056;-68
2024/01/15 11:38:45;;;;;;;15.15;6.75;;;;;;;;;;5042964;28;20049;-68
2024/01/15 11:41:14;;;;;;;16.85;8.63;;;;;;;;;;5042065;28;20049;-68
2024/01/15 11:43:41;;;;;;;15.23;6.97;;;;;;;;;;5036918;28;20057;-67
2024/01/15 11:46:11;;;;;;;15.90;7.75;;;;;;;;;;5039606;28;20111;-68
2024/01/15 11:48:43;;;;;;;15.10;6.80;;;;;;;;;;5038248;28;20057;-68
2024/01/15 11:51:11;;;;;;;13.02;6.05;;;;;;;;;;5043578;28;20674;-68
2024/01/15 11:53:42;;;;;;;15.07;8.20;;;;;;;;;;5032487;28;20046;-67
2024/01/15 11:56:12;;;;;;;13.68;6.75;;;;;;;;;;5048459;28;20055;-67
2024/01/15 11:58:39;;;;;;;14.50;6.57;;;;;;;;;;5044449;28;20045;-67
2024/01/15 12:01:05;;;;;;;14.95;6.53;;;;;;;;;;5045268;28;20519;-67
2024/01/15 12:03:34;;;;;;;14.93;6.80;;;;;;;;;;5043974;28;20468;-67
2024/01/15 12:06:01;;;;;;;15.70;6.82;;;;;;;;;;5039721;28;20437;-68
2024/01/15 12:08:27;;;;;;;14.40;6.90;;;;;;;;;;5035201;28;20049;-68
2024/01/15 12:10:54;;;;;;;15.50;6.65;;;;;;;;;;5040405;28;20080;-67
2024/01/15 12:13:21;;;;;;;13.77;6.80;;;;;;;;;;5050603;28;20045;-67
2024/01/15 12:15:48;;;;;;;12.70;6.20;;;;;;;;;;5050244;28;20067;-67
2024/01/15 12:18:15;;;;;;;13.82;7.20;;;;;;;;;;5037088;28;20133;-67
2024/01/15 12:20:43;;;;;;;15.52;6.97;;;;;;;;;;5045899;28;20053;-68
2024/01/15 12:23:11;;;;;;;17.30;7.65;;;;;;;;;;5042420;28;20045;-67
2024/01/15 12:25:38;;;;;;;17.33;7.50;;;;;;;;;;5044594;28;20161;-68
2024/01/15 12:28:04;;;;;;;12.23;5.82;;;;;;;;;;5047870;28;20045;-67
2024/01/15 12:30:32;;;;;;;11.27;5.97;;;;;;;;;;5036485;28;20142;-68
2024/01/15 12:32:58;;;;;;;10.85;5.53;;;;;;;;;;5039088;28;20045;-67
2024/01/15 12:35:26;;;;;;;10.88;6.10;;;;;;;;;;5037574;28;20409;-68
2024/01/15 12:37:55;;;;;;;10.90;5.50;;;;;;;;;;5045551;28;20048;-68
2024/01/15 12:40:22;;;;;;;15.80;6.60;;;;;;;;;;5045519;28;20064;-68
2024/01/15 12:42:48;;;;;;;12.45;6.05;;;;;;;;;;5040011;28;20505;-67
2024/01/15 12:45:15;;;;;;;13.60;6.65;;;;;;;;;;5048078;28;20045;-68
2024/01/15 12:47:42;;;;;;;11.27;5.43;;;;;;;;;;5038089;28;20049;-68
2024/01/15 12:50:08;;;;;;;10.27;5.40;;;;;;;;;;5048540;28;20055;-68
2024/01/15 12:52:37;;;;;;;36.50;14.63;;;;;;;;;;5044853;28;20069;-68
2024/01/15 12:55:05;;;;;;;70.80;27.92;;;;;;;;;;5043871;28;20037;-68
2024/01/15 12:57:31;;;;;;;13.57;6.65;;;;;;;;;;5040307;28;20047;-68
2024/01/15 12:59:58;;;;;;;10.65;5.95;;;;;;;;;;5047184;28;20537;-68
2024/01/15 13:02:24;;;;;;;8.75;4.28;;;;;;;;;;5048337;28;20267;-68
2024/01/15 13:04:51;;;;;;;9.27;4.57;;;;;;;;;;5049180;28;20504;-67
2024/01/15 13:07:17;;;;;;;12.52;5.10;;;;;;;;;;5038171;28;20076;-67
2024/01/15 13:09:44;;;;;;;6.70;4.15;;;;;;;;;;5042516;28;20056;-68
2024/01/15 13:12:12;;;;;;;8.65;4.60;;;;;;;;;;5050538;28;20135;-67
2024/01/15 13:14:38;;;;;;;7.93;3.60;;;;;;;;;;5051290;28;20044;-68
2024/01/15 13:17:06;;;;;;;9.88;4.40;;;;;;;;;;5044563;28;20045;-68
2024/01/15 13:19:32;;;;;;;8.20;3.72;;;;;;;;;;5050206;28;20098;-68
2024/01/15 13:22:00;;;;;;;4.80;2.75;;;;;;;;;;5049580;28;20049;-68
2024/01/15 13:24:26;;;;;;;6.57;2.90;;;;;;;;;;5048219;28;20049;-68
2024/01/15 13:26:53;;;;;;;5.43;2.65;;;;;;;;;;5044238;28;20048;-68
2024/01/15 13:29:20;;;;;;;6.28;2.53;;;;;;;;;;5049029;28;20057;-68
2024/01/15 13:31:47;;;;;;;4.13;2.35;;;;;;;;;;5038803;28;20047;-68
2024/01/15 13:34:13;;;;;;;6.90;2.35;;;;;;;;;;5042473;28;20053;-68
2024/01/15 13:36:40;;;;;;;3.25;2.17;;;;;;;;;;5047804;28;20056;-68
2024/01/15 13:39:08;;;;;;;3.30;1.95;;;;;;;;;;5045282;28;20409;-67
2024/01/15 13:41:35;;;;;;;2.83;1.95;;;;;;;;;;5047192;28;20144;-68
2024/01/15 13:44:01;;;;;;;4.97;2.33;;;;;;;;;;5045759;28;20061;-68
2024/01/15 13:46:29;;;;;;;4.35;1.75;;;;;;;;;;5042139;28;20076;-68
2024/01/15 13:48:55;;;;;;;4.75;1.77;;;;;;;;;;5044619;28;20045;-67
2024/01/15 13:51:23;;;;;;;6.28;2.63;;;;;;;;;;5041643;28;20131;-67
2024/01/15 13:53:49;;;;;;;8.88;3.03;;;;;;;;;;5048060;28;20076;-67
2024/01/15 13:56:16;;;;;;;5.00;2.15;;;;;;;;;;5045168;28;20063;-67
2024/01/15 13:58:43;;;;;;;5.65;2.47;;;;;;;;;;5048050;28;20060;-68
2024/01/15 14:01:10;;;;;;;5.35;1.85;;;;;;;;;;5055346;28;20394;-67
2024/01/15 14:03:38;;;;;;;4.63;2.03;;;;;;;;;;5045143;28;20044;-67
2024/01/15 14:06:08;;;;;;;5.50;2.30;;;;;;;;;;5053787;28;20045;-67
2024/01/15 14:08:35;;;;;;;4.22;1.88;;;;;;;;;;5050143;28;20052;-67
2024/01/15 14:11:01;;;;;;;3.05;1.80;;;;;;;;;;5046912;28;20425;-67
2024/01/15 14:13:27;;;;;;;2.72;1.90;;;;;;;;;;5055888;28;20068;-67
2024/01/15 14:15:55;;;;;;;5.50;1.67;;;;;;;;;;5054805;28;20041;-67
2024/01/15 14:18:22;;;;;;;2.83;1.63;;;;;;;;;;5052134;28;20084;-67
2024/01/15 14:20:49;;;;;;;4.65;2.00;;;;;;;;;;5050939;28;20044;-67
2024/01/15 14:23:16;;;;;;;5.53;1.95;;;;;;;;;;5049581;28;20053;-67
2024/01/15 14:25:42;;;;;;;4.13;2.75;;;;;;;;;;5049469;28;20129;-67